sensor_id;sensor_type;location;lat;lon;timestamp;P1;durP1;ratioP1;P2;durP2;ratioP2
9661;SDS011;24982;52.344;12.990;2023-05-10T00:00:25;4.35;;;3.95;;
9661;SDS011;24982;52.344;12.990;2023-05-10T00:03:27;4.32;;;3.92;;
9661;SDS011;24982;52.344;12.990;2023-05-10T00:06:29;4.10;;;3.80;;
9661;SDS011;24982;52.344;12.990;2023-05-10T00:09:33;4.20;;;3.90;;
9661;SDS011;24982;52.344;12.990;2023-05-10T00:12:34;4.47;;;4.07;;
9661;SDS011;24982;52.344;12.990;2023-05-10T00:15:36;6.95;;;3.90;;
9661;SDS011;24982;52.344;12.990;2023-05-10T00:18:38;5.28;;;4.18;;
9661;SDS011;24982;52.344;12.990;2023-05-10T00:21:40;5.03;;;4.15;;
9661;SDS011;24982;52.344;12.990;2023-05-10T00:24:44;7.93;;;4.20;;
9661;SDS011;24982;52.344;12.990;2023-05-10T00:27:46;4.20;;;3.90;;
9661;SDS011;24982;52.344;12.990;2023-05-10T00:30:48;5.00;;;4.30;;
9661;SDS011;24982;52.344;12.990;2023-05-10T00:33:50;6.70;;;4.28;;
9661;SDS011;24982;52.344;12.990;2023-05-10T00:36:51;4.07;;;3.78;;
9661;SDS011;24982;52.344;12.990;2023-05-10T00:39:55;4.57;;;4.10;;
9661;SDS011;24982;52.344;12.990;2023-05-10T00:42:57;4.40;;;4.10;;
9661;SDS011;24982;52.344;12.990;2023-05-10T00:45:59;4.55;;;4.15;;
9661;SDS011;24982;52.344;12.990;2023-05-10T00:49:01;4.30;;;4.00;;
9661;SDS011;24982;52.344;12.990;2023-05-10T00:52:04;4.82;;;4.35;;
9661;SDS011;24982;52.344;12.990;2023-05-10T00:55:08;4.90;;;4.40;;
9661;SDS011;24982;52.344;12.990;2023-05-10T00:58:12;5.95;;;4.50;;
9661;SDS011;24982;52.344;12.990;2023-05-10T01:01:14;4.82;;;4.32;;
9661;SDS011;24982;52.344;12.990;2023-05-10T01:04:16;7.93;;;4.07;;
9661;SDS011;24982;52.344;12.990;2023-05-10T01:07:20;6.82;;;4.82;;
9661;SDS011;24982;52.344;12.990;2023-05-10T01:10:23;4.57;;;4.15;;
9661;SDS011;24982;52.344;12.990;2023-05-10T01:13:29;5.15;;;4.10;;
9661;SDS011;24982;52.344;12.990;2023-05-10T01:16:34;4.20;;;3.90;;
9661;SDS011;24982;52.344;12.990;2023-05-10T01:19:39;4.82;;;4.43;;
9661;SDS011;24982;52.344;12.990;2023-05-10T01:22:47;4.65;;;4.25;;
9661;SDS011;24982;52.344;12.990;2023-05-10T01:26:18;5.53;;;4.00;;
9661;SDS011;24982;52.344;12.990;2023-05-10T01:29:47;5.03;;;4.65;;
9661;SDS011;24982;52.344;12.990;2023-05-10T01:33:06;5.93;;;4.30;;
9661;SDS011;24982;52.344;12.990;2023-05-10T01:36:19;4.55;;;4.05;;
9661;SDS011;24982;52.344;12.990;2023-05-10T01:39:28;4.50;;;4.18;;
9661;SDS011;24982;52.344;12.990;2023-05-10T01:42:36;6.70;;;4.57;;
9661;SDS011;24982;52.344;12.990;2023-05-10T01:45:44;4.47;;;4.18;;
9661;SDS011;24982;52.344;12.990;2023-05-10T01:48:54;5.20;;;4.50;;
9661;SDS011;24982;52.344;12.990;2023-05-10T01:51:59;4.95;;;4.53;;
9661;SDS011;24982;52.344;12.990;2023-05-10T01:55:08;5.50;;;4.70;;
9661;SDS011;24982;52.344;12.990;2023-05-10T01:58:13;5.15;;;4.38;;
9661;SDS011;24982;52.344;12.990;2023-05-10T02:01:18;5.10;;;4.70;;
9661;SDS011;24982;52.344;12.990;2023-05-10T02:04:23;4.97;;;4.57;;
9661;SDS011;24982;52.344;12.990;2023-05-10T02:07:26;4.80;;;4.35;;
9661;SDS011;24982;52.344;12.990;2023-05-10T02:10:29;5.30;;;4.90;;
9661;SDS011;24982;52.344;12.990;2023-05-10T02:13:33;5.25;;;4.60;;
9661;SDS011;24982;52.344;12.990;2023-05-10T02:16:37;7.07;;;5.45;;
9661;SDS011;24982;52.344;12.990;2023-05-10T02:19:41;5.57;;;5.10;;
9661;SDS011;24982;52.344;12.990;2023-05-10T02:22:44;6.55;;;4.78;;
9661;SDS011;24982;52.344;12.990;2023-05-10T02:25:48;5.88;;;4.80;;
9661;SDS011;24982;52.344;12.990;2023-05-10T02:28:54;5.10;;;4.68;;
9661;SDS011;24982;52.344;12.990;2023-05-10T02:31:58;5.80;;;5.25;;
9661;SDS011;24982;52.344;12.990;2023-05-10T02:35:02;5.13;;;4.70;;
9661;SDS011;24982;52.344;12.990;2023-05-10T02:38:06;8.38;;;4.80;;
9661;SDS011;24982;52.344;12.990;2023-05-10T02:41:10;5.03;;;4.55;;
9661;SDS011;24982;52.344;12.990;2023-05-10T02:44:14;6.78;;;4.75;;
9661;SDS011;24982;52.344;12.990;2023-05-10T02:47:20;7.75;;;4.65;;
9661;SDS011;24982;52.344;12.990;2023-05-10T02:50:24;7.00;;;4.85;;
9661;SDS011;24982;52.344;12.990;2023-05-10T02:53:30;5.32;;;4.80;;
9661;SDS011;24982;52.344;12.990;2023-05-10T02:56:34;5.80;;;4.68;;
9661;SDS011;24982;52.344;12.990;2023-05-10T02:59:42;4.88;;;4.47;;
9661;SDS011;24982;52.344;12.990;2023-05-10T03:02:45;5.57;;;5.07;;
9661;SDS011;24982;52.344;12.990;2023-05-10T03:05:49;5.55;;;5.00;;
9661;SDS011;24982;52.344;12.990;2023-05-10T03:08:51;7.22;;;5.20;;
9661;SDS011;24982;52.344;12.990;2023-05-10T03:11:55;5.15;;;4.75;;
9661;SDS011;24982;52.344;12.990;2023-05-10T03:15:04;5.50;;;5.00;;
9661;SDS011;24982;52.344;12.990;2023-05-10T03:18:15;5.78;;;4.80;;
9661;SDS011;24982;52.344;12.990;2023-05-10T03:21:22;7.88;;;5.05;;
9661;SDS011;24982;52.344;12.990;2023-05-10T03:24:28;5.15;;;4.72;;
9661;SDS011;24982;52.344;12.990;2023-05-10T03:27:33;5.60;;;5.10;;
9661;SDS011;24982;52.344;12.990;2023-05-10T03:30:37;5.35;;;4.93;;
9661;SDS011;24982;52.344;12.990;2023-05-10T03:33:45;5.72;;;5.20;;
9661;SDS011;24982;52.344;12.990;2023-05-10T03:36:50;5.78;;;5.28;;
9661;SDS011;24982;52.344;12.990;2023-05-10T03:39:53;6.05;;;5.47;;
9661;SDS011;24982;52.344;12.990;2023-05-10T03:42:55;6.03;;;5.43;;
9661;SDS011;24982;52.344;12.990;2023-05-10T03:45:57;5.68;;;5.00;;
9661;SDS011;24982;52.344;12.990;2023-05-10T03:48:59;6.07;;;5.50;;
9661;SDS011;24982;52.344;12.990;2023-05-10T03:52:02;5.75;;;5.20;;
9661;SDS011;24982;52.344;12.990;2023-05-10T03:55:05;6.28;;;5.68;;
9661;SDS011;24982;52.344;12.990;2023-05-10T03:58:13;7.55;;;5.68;;
9661;SDS011;24982;52.344;12.990;2023-05-10T04:01:15;11.75;;;5.80;;
9661;SDS011;24982;52.344;12.990;2023-05-10T04:04:18;5.30;;;4.90;;
9661;SDS011;24982;52.344;12.990;2023-05-10T04:07:25;6.22;;;5.68;;
9661;SDS011;24982;52.344;12.990;2023-05-10T04:10:27;9.25;;;5.68;;
9661;SDS011;24982;52.344;12.990;2023-05-10T04:13:29;6.15;;;5.50;;
9661;SDS011;24982;52.344;12.990;2023-05-10T04:16:30;5.93;;;5.40;;
9661;SDS011;24982;52.344;12.990;2023-05-10T04:19:32;5.60;;;5.10;;
9661;SDS011;24982;52.344;12.990;2023-05-10T04:22:36;5.80;;;5.30;;
9661;SDS011;24982;52.344;12.990;2023-05-10T04:25:39;6.45;;;5.45;;
9661;SDS011;24982;52.344;12.990;2023-05-10T04:28:41;7.82;;;5.45;;
9661;SDS011;24982;52.344;12.990;2023-05-10T04:31:43;5.80;;;5.22;;
9661;SDS011;24982;52.344;12.990;2023-05-10T04:34:45;5.65;;;5.15;;
9661;SDS011;24982;52.344;12.990;2023-05-10T04:37:49;6.63;;;5.20;;
9661;SDS011;24982;52.344;12.990;2023-05-10T04:40:51;9.27;;;5.70;;
9661;SDS011;24982;52.344;12.990;2023-05-10T04:43:53;6.15;;;5.20;;
9661;SDS011;24982;52.344;12.990;2023-05-10T04:46:55;5.93;;;5.43;;
9661;SDS011;24982;52.344;12.990;2023-05-10T04:49:57;5.43;;;4.93;;
9661;SDS011;24982;52.344;12.990;2023-05-10T04:53:00;6.15;;;5.30;;
9661;SDS011;24982;52.344;12.990;2023-05-10T04:56:03;6.95;;;5.00;;
9661;SDS011;24982;52.344;12.990;2023-05-10T04:59:05;6.78;;;5.20;;
9661;SDS011;24982;52.344;12.990;2023-05-10T05:02:07;5.38;;;4.88;;
9661;SDS011;24982;52.344;12.990;2023-05-10T05:05:09;5.72;;;4.75;;
9661;SDS011;24982;52.344;12.990;2023-05-10T05:08:12;5.60;;;5.10;;
9661;SDS011;24982;52.344;12.990;2023-05-10T05:11:14;5.82;;;5.20;;
9661;SDS011;24982;52.344;12.990;2023-05-10T05:14:16;6.28;;;4.88;;
9661;SDS011;24982;52.344;12.990;2023-05-10T05:17:20;5.22;;;4.70;;
9661;SDS011;24982;52.344;12.990;2023-05-10T05:20:22;9.13;;;5.40;;
9661;SDS011;24982;52.344;12.990;2023-05-10T05:23:26;6.15;;;4.60;;
9661;SDS011;24982;52.344;12.990;2023-05-10T05:26:28;6.95;;;5.15;;
9661;SDS011;24982;52.344;12.990;2023-05-10T05:29:30;5.45;;;4.75;;
9661;SDS011;24982;52.344;12.990;2023-05-10T05:32:32;5.40;;;4.90;;
9661;SDS011;24982;52.344;12.990;2023-05-10T05:35:34;5.13;;;4.63;;
9661;SDS011;24982;52.344;12.990;2023-05-10T05:38:37;5.97;;;4.93;;
9661;SDS011;24982;52.344;12.990;2023-05-10T05:41:39;5.32;;;4.88;;
9661;SDS011;24982;52.344;12.990;2023-05-10T05:44:41;5.00;;;4.50;;
9661;SDS011;24982;52.344;12.990;2023-05-10T05:47:43;5.53;;;4.90;;
9661;SDS011;24982;52.344;12.990;2023-05-10T05:50:46;5.15;;;4.47;;
9661;SDS011;24982;52.344;12.990;2023-05-10T05:53:49;5.43;;;4.68;;
9661;SDS011;24982;52.344;12.990;2023-05-10T05:56:53;4.85;;;4.50;;
9661;SDS011;24982;52.344;12.990;2023-05-10T05:59:55;4.85;;;4.32;;
9661;SDS011;24982;52.344;12.990;2023-05-10T06:02:57;4.85;;;4.22;;
9661;SDS011;24982;52.344;12.990;2023-05-10T06:05:59;4.93;;;4.53;;
9661;SDS011;24982;52.344;12.990;2023-05-10T06:09:04;4.78;;;4.28;;
9661;SDS011;24982;52.344;12.990;2023-05-10T06:12:06;5.10;;;4.47;;
9661;SDS011;24982;52.344;12.990;2023-05-10T06:15:08;5.95;;;4.28;;
9661;SDS011;24982;52.344;12.990;2023-05-10T06:18:11;5.57;;;4.10;;
9661;SDS011;24982;52.344;12.990;2023-05-10T06:21:13;5.43;;;4.10;;
9661;SDS011;24982;52.344;12.990;2023-05-10T06:24:16;6.00;;;4.10;;
9661;SDS011;24982;52.344;12.990;2023-05-10T06:27:18;5.88;;;3.85;;
9661;SDS011;24982;52.344;12.990;2023-05-10T06:30:20;7.30;;;3.92;;
9661;SDS011;24982;52.344;12.990;2023-05-10T06:33:23;4.03;;;3.70;;
9661;SDS011;24982;52.344;12.990;2023-05-10T06:36:25;9.77;;;4.07;;
9661;SDS011;24982;52.344;12.990;2023-05-10T06:39:28;3.30;;;3.00;;
9661;SDS011;24982;52.344;12.990;2023-05-10T06:42:30;3.92;;;3.58;;
9661;SDS011;24982;52.344;12.990;2023-05-10T06:45:32;4.47;;;3.40;;
9661;SDS011;24982;52.344;12.990;2023-05-10T06:48:34;5.15;;;3.55;;
9661;SDS011;24982;52.344;12.990;2023-05-10T06:51:36;4.97;;;3.42;;
9661;SDS011;24982;52.344;12.990;2023-05-10T06:54:39;3.47;;;3.20;;
9661;SDS011;24982;52.344;12.990;2023-05-10T06:57:41;4.95;;;3.30;;
9661;SDS011;24982;52.344;12.990;2023-05-10T07:00:43;3.97;;;3.30;;
9661;SDS011;24982;52.344;12.990;2023-05-10T07:03:47;2.97;;;2.78;;
9661;SDS011;24982;52.344;12.990;2023-05-10T07:06:48;3.08;;;2.83;;
9661;SDS011;24982;52.344;12.990;2023-05-10T07:09:52;3.33;;;3.03;;
9661;SDS011;24982;52.344;12.990;2023-05-10T07:12:54;5.85;;;3.22;;
9661;SDS011;24982;52.344;12.990;2023-05-10T07:15:56;3.35;;;3.05;;
9661;SDS011;24982;52.344;12.990;2023-05-10T07:18:58;4.53;;;3.17;;
9661;SDS011;24982;52.344;12.990;2023-05-10T07:22:00;3.97;;;2.95;;
9661;SDS011;24982;52.344;12.990;2023-05-10T07:25:03;3.40;;;3.10;;
9661;SDS011;24982;52.344;12.990;2023-05-10T07:28:06;3.40;;;3.15;;
9661;SDS011;24982;52.344;12.990;2023-05-10T07:31:08;3.13;;;2.88;;
9661;SDS011;24982;52.344;12.990;2023-05-10T07:34:10;3.58;;;2.85;;
9661;SDS011;24982;52.344;12.990;2023-05-10T07:37:12;3.08;;;2.80;;
9661;SDS011;24982;52.344;12.990;2023-05-10T07:40:15;3.13;;;2.92;;
9661;SDS011;24982;52.344;12.990;2023-05-10T07:43:17;5.47;;;2.97;;
9661;SDS011;24982;52.344;12.990;2023-05-10T07:46:20;3.83;;;3.03;;
9661;SDS011;24982;52.344;12.990;2023-05-10T07:49:22;6.85;;;3.08;;
9661;SDS011;24982;52.344;12.990;2023-05-10T07:52:25;2.92;;;2.72;;
9661;SDS011;24982;52.344;12.990;2023-05-10T07:55:28;3.08;;;2.88;;
9661;SDS011;24982;52.344;12.990;2023-05-10T07:58:30;3.90;;;2.88;;
9661;SDS011;24982;52.344;12.990;2023-05-10T08:01:33;2.70;;;2.50;;
9661;SDS011;24982;52.344;12.990;2023-05-10T08:04:35;2.92;;;2.70;;
9661;SDS011;24982;52.344;12.990;2023-05-10T08:07:37;2.97;;;2.78;;
9661;SDS011;24982;52.344;12.990;2023-05-10T08:10:40;2.70;;;2.50;;
9661;SDS011;24982;52.344;12.990;2023-05-10T08:13:42;5.00;;;2.70;;
9661;SDS011;24982;52.344;12.990;2023-05-10T08:16:45;3.15;;;2.78;;
9661;SDS011;24982;52.344;12.990;2023-05-10T08:19:48;2.90;;;2.70;;
9661;SDS011;24982;52.344;12.990;2023-05-10T08:22:50;3.00;;;2.70;;
9661;SDS011;24982;52.344;12.990;2023-05-10T08:25:53;3.00;;;2.80;;
9661;SDS011;24982;52.344;12.990;2023-05-10T08:28:55;5.03;;;2.47;;
9661;SDS011;24982;52.344;12.990;2023-05-10T08:31:57;3.72;;;2.70;;
9661;SDS011;24982;52.344;12.990;2023-05-10T08:34:59;3.05;;;2.72;;
9661;SDS011;24982;52.344;12.990;2023-05-10T08:38:02;4.75;;;3.10;;
9661;SDS011;24982;52.344;12.990;2023-05-10T08:41:05;4.85;;;2.80;;
9661;SDS011;24982;52.344;12.990;2023-05-10T08:44:07;2.95;;;2.75;;
9661;SDS011;24982;52.344;12.990;2023-05-10T08:47:09;2.90;;;2.70;;
9661;SDS011;24982;52.344;12.990;2023-05-10T08:50:12;2.97;;;2.67;;
9661;SDS011;24982;52.344;12.990;2023-05-10T08:53:16;3.45;;;3.10;;
9661;SDS011;24982;52.344;12.990;2023-05-10T08:56:20;3.45;;;2.50;;
9661;SDS011;24982;52.344;12.990;2023-05-10T08:59:22;3.25;;;2.67;;
9661;SDS011;24982;52.344;12.990;2023-05-10T09:02:24;2.70;;;2.50;;
9661;SDS011;24982;52.344;12.990;2023-05-10T09:05:27;2.50;;;2.30;;
9661;SDS011;24982;52.344;12.990;2023-05-10T09:08:29;5.78;;;2.70;;
9661;SDS011;24982;52.344;12.990;2023-05-10T09:11:32;5.30;;;2.60;;
9661;SDS011;24982;52.344;12.990;2023-05-10T09:14:35;2.50;;;2.40;;
9661;SDS011;24982;52.344;12.990;2023-05-10T09:17:38;3.55;;;2.78;;
9661;SDS011;24982;52.344;12.990;2023-05-10T09:20:41;3.47;;;3.00;;
9661;SDS011;24982;52.344;12.990;2023-05-10T09:23:43;3.88;;;2.63;;
9661;SDS011;24982;52.344;12.990;2023-05-10T09:26:48;3.90;;;2.53;;
9661;SDS011;24982;52.344;12.990;2023-05-10T09:29:50;3.83;;;2.42;;
9661;SDS011;24982;52.344;12.990;2023-05-10T09:32:55;2.85;;;2.60;;
9661;SDS011;24982;52.344;12.990;2023-05-10T09:36:06;2.47;;;2.35;;
9661;SDS011;24982;52.344;12.990;2023-05-10T09:39:08;3.03;;;2.40;;
9661;SDS011;24982;52.344;12.990;2023-05-10T09:42:11;2.78;;;2.58;;
9661;SDS011;24982;52.344;12.990;2023-05-10T09:45:13;3.67;;;2.50;;
9661;SDS011;24982;52.344;12.990;2023-05-10T09:48:16;2.67;;;2.53;;
9661;SDS011;24982;52.344;12.990;2023-05-10T09:51:20;3.42;;;2.40;;
9661;SDS011;24982;52.344;12.990;2023-05-10T09:54:23;5.82;;;2.60;;
9661;SDS011;24982;52.344;12.990;2023-05-10T09:57:26;2.50;;;2.40;;
9661;SDS011;24982;52.344;12.990;2023-05-10T10:00:33;2.40;;;2.22;;
9661;SDS011;24982;52.344;12.990;2023-05-10T10:03:40;2.47;;;2.28;;
9661;SDS011;24982;52.344;12.990;2023-05-10T10:06:43;2.60;;;2.40;;
9661;SDS011;24982;52.344;12.990;2023-05-10T10:09:45;2.53;;;2.40;;
9661;SDS011;24982;52.344;12.990;2023-05-10T10:12:48;2.75;;;2.53;;
9661;SDS011;24982;52.344;12.990;2023-05-10T10:15:51;2.30;;;2.20;;
9661;SDS011;24982;52.344;12.990;2023-05-10T10:18:54;3.42;;;2.50;;
9661;SDS011;24982;52.344;12.990;2023-05-10T10:21:57;4.13;;;2.47;;
9661;SDS011;24982;52.344;12.990;2023-05-10T10:24:59;3.17;;;2.50;;
9661;SDS011;24982;52.344;12.990;2023-05-10T10:28:07;3.30;;;2.63;;
9661;SDS011;24982;52.344;12.990;2023-05-10T10:31:17;3.72;;;2.50;;
9661;SDS011;24982;52.344;12.990;2023-05-10T10:34:28;4.75;;;2.58;;
9661;SDS011;24982;52.344;12.990;2023-05-10T10:37:42;2.75;;;2.42;;
9661;SDS011;24982;52.344;12.990;2023-05-10T10:40:46;3.53;;;2.50;;
9661;SDS011;24982;52.344;12.990;2023-05-10T10:43:50;2.70;;;2.50;;
9661;SDS011;24982;52.344;12.990;2023-05-10T10:47:27;2.50;;;2.40;;
9661;SDS011;24982;52.344;12.990;2023-05-10T10:50:40;2.63;;;2.10;;
9661;SDS011;24982;52.344;12.990;2023-05-10T10:53:45;2.47;;;2.10;;
9661;SDS011;24982;52.344;12.990;2023-05-10T11:00:21;2.47;;;2.38;;
9661;SDS011;24982;52.344;12.990;2023-05-10T11:03:24;3.80;;;2.40;;
9661;SDS011;24982;52.344;12.990;2023-05-10T11:06:29;2.97;;;2.58;;
9661;SDS011;24982;52.344;12.990;2023-05-10T11:09:38;2.80;;;2.58;;
9661;SDS011;24982;52.344;12.990;2023-05-10T11:12:50;2.70;;;2.42;;
9661;SDS011;24982;52.344;12.990;2023-05-10T11:15:54;2.55;;;2.35;;
9661;SDS011;24982;52.344;12.990;2023-05-10T11:18:58;2.53;;;2.33;;
9661;SDS011;24982;52.344;12.990;2023-05-10T11:25:26;3.53;;;2.33;;
9661;SDS011;24982;52.344;12.990;2023-05-10T11:28:29;2.63;;;2.45;;
9661;SDS011;24982;52.344;12.990;2023-05-10T11:31:32;2.63;;;2.42;;
9661;SDS011;24982;52.344;12.990;2023-05-10T11:34:35;3.25;;;2.55;;
9661;SDS011;24982;52.344;12.990;2023-05-10T11:37:38;3.78;;;2.60;;
9661;SDS011;24982;52.344;12.990;2023-05-10T11:40:43;2.50;;;2.40;;
9661;SDS011;24982;52.344;12.990;2023-05-10T11:43:46;3.22;;;2.78;;
9661;SDS011;24982;52.344;12.990;2023-05-10T11:46:50;5.03;;;2.15;;
9661;SDS011;24982;52.344;12.990;2023-05-10T11:49:53;2.85;;;2.65;;
9661;SDS011;24982;52.344;12.990;2023-05-10T11:52:56;2.40;;;2.30;;
9661;SDS011;24982;52.344;12.990;2023-05-10T11:56:02;3.47;;;2.60;;
9661;SDS011;24982;52.344;12.990;2023-05-10T11:59:05;3.00;;;2.40;;
9661;SDS011;24982;52.344;12.990;2023-05-10T12:02:09;2.83;;;2.45;;
9661;SDS011;24982;52.344;12.990;2023-05-10T12:05:12;2.58;;;2.38;;
9661;SDS011;24982;52.344;12.990;2023-05-10T12:08:15;3.47;;;2.40;;
9661;SDS011;24982;52.344;12.990;2023-05-10T12:11:23;2.83;;;2.55;;
9661;SDS011;24982;52.344;12.990;2023-05-10T12:14:27;2.67;;;2.47;;
9661;SDS011;24982;52.344;12.990;2023-05-10T12:17:34;2.63;;;2.40;;
9661;SDS011;24982;52.344;12.990;2023-05-10T12:20:39;5.72;;;2.42;;
9661;SDS011;24982;52.344;12.990;2023-05-10T12:23:42;4.03;;;2.53;;
9661;SDS011;24982;52.344;12.990;2023-05-10T12:26:46;5.97;;;2.40;;
9661;SDS011;24982;52.344;12.990;2023-05-10T12:29:48;2.42;;;2.33;;
9661;SDS011;24982;52.344;12.990;2023-05-10T12:32:52;4.13;;;2.45;;
9661;SDS011;24982;52.344;12.990;2023-05-10T12:35:54;5.97;;;2.45;;
9661;SDS011;24982;52.344;12.990;2023-05-10T12:39:02;2.75;;;2.47;;
9661;SDS011;24982;52.344;12.990;2023-05-10T12:42:05;2.40;;;2.28;;
9661;SDS011;24982;52.344;12.990;2023-05-10T12:45:07;2.55;;;2.35;;
9661;SDS011;24982;52.344;12.990;2023-05-10T12:48:11;3.45;;;2.60;;
9661;SDS011;24982;52.344;12.990;2023-05-10T12:51:13;2.50;;;2.40;;
9661;SDS011;24982;52.344;12.990;2023-05-10T12:54:19;3.38;;;2.28;;
9661;SDS011;24982;52.344;12.990;2023-05-10T12:57:21;2.42;;;2.30;;
9661;SDS011;24982;52.344;12.990;2023-05-10T13:00:23;2.67;;;2.35;;
9661;SDS011;24982;52.344;12.990;2023-05-10T13:03:26;2.45;;;2.30;;
9661;SDS011;24982;52.344;12.990;2023-05-10T13:06:28;3.40;;;2.90;;
9661;SDS011;24982;52.344;12.990;2023-05-10T13:09:31;2.70;;;2.50;;
9661;SDS011;24982;52.344;12.990;2023-05-10T13:12:33;3.17;;;2.20;;
9661;SDS011;24982;52.344;12.990;2023-05-10T13:15:35;2.75;;;2.33;;
9661;SDS011;24982;52.344;12.990;2023-05-10T13:18:38;2.55;;;2.42;;
9661;SDS011;24982;52.344;12.990;2023-05-10T13:21:40;7.25;;;2.78;;
9661;SDS011;24982;52.344;12.990;2023-05-10T13:24:42;2.67;;;2.47;;
9661;SDS011;24982;52.344;12.990;2023-05-10T13:27:44;3.20;;;2.50;;
9661;SDS011;24982;52.344;12.990;2023-05-10T13:30:46;2.60;;;2.40;;
9661;SDS011;24982;52.344;12.990;2023-05-10T13:33:50;2.80;;;2.60;;
9661;SDS011;24982;52.344;12.990;2023-05-10T13:36:52;2.50;;;2.30;;
9661;SDS011;24982;52.344;12.990;2023-05-10T13:39:55;2.70;;;2.50;;
9661;SDS011;24982;52.344;12.990;2023-05-10T13:42:57;3.78;;;2.45;;
9661;SDS011;24982;52.344;12.990;2023-05-10T13:45:59;4.05;;;2.60;;
9661;SDS011;24982;52.344;12.990;2023-05-10T13:49:03;4.68;;;2.80;;
9661;SDS011;24982;52.344;12.990;2023-05-10T13:52:05;2.95;;;2.50;;
9661;SDS011;24982;52.344;12.990;2023-05-10T13:55:07;4.00;;;2.40;;
9661;SDS011;24982;52.344;12.990;2023-05-10T13:58:09;2.38;;;2.28;;
9661;SDS011;24982;52.344;12.990;2023-05-10T14:01:11;3.47;;;2.50;;
9661;SDS011;24982;52.344;12.990;2023-05-10T14:04:15;2.53;;;2.33;;
9661;SDS011;24982;52.344;12.990;2023-05-10T14:07:17;3.70;;;2.45;;
9661;SDS011;24982;52.344;12.990;2023-05-10T14:10:19;2.65;;;2.50;;
9661;SDS011;24982;52.344;12.990;2023-05-10T14:13:21;2.95;;;2.67;;
9661;SDS011;24982;52.344;12.990;2023-05-10T14:16:23;2.90;;;2.75;;
9661;SDS011;24982;52.344;12.990;2023-05-10T14:19:29;2.90;;;2.70;;
9661;SDS011;24982;52.344;12.990;2023-05-10T14:22:32;3.70;;;2.50;;
9661;SDS011;24982;52.344;12.990;2023-05-10T14:25:34;2.80;;;2.50;;
9661;SDS011;24982;52.344;12.990;2023-05-10T14:28:38;2.70;;;2.50;;
9661;SDS011;24982;52.344;12.990;2023-05-10T14:31:40;2.83;;;2.63;;
9661;SDS011;24982;52.344;12.990;2023-05-10T14:34:43;3.47;;;3.10;;
9661;SDS011;24982;52.344;12.990;2023-05-10T14:37:45;2.40;;;2.30;;
9661;SDS011;24982;52.344;12.990;2023-05-10T14:40:47;3.85;;;2.95;;
9661;SDS011;24982;52.344;12.990;2023-05-10T14:43:49;3.75;;;3.33;;
9661;SDS011;24982;52.344;12.990;2023-05-10T14:46:51;3.65;;;3.28;;
9661;SDS011;24982;52.344;12.990;2023-05-10T14:49:55;6.40;;;4.22;;
9661;SDS011;24982;52.344;12.990;2023-05-10T14:52:57;3.88;;;3.50;;
9661;SDS011;24982;52.344;12.990;2023-05-10T14:55:59;4.35;;;3.95;;
9661;SDS011;24982;52.344;12.990;2023-05-10T14:59:03;6.32;;;4.10;;
9661;SDS011;24982;52.344;12.990;2023-05-10T15:02:05;8.40;;;4.50;;
9661;SDS011;24982;52.344;12.990;2023-05-10T15:05:09;5.45;;;3.80;;
9661;SDS011;24982;52.344;12.990;2023-05-10T15:08:11;9.05;;;4.70;;
9661;SDS011;24982;52.344;12.990;2023-05-10T15:11:13;4.22;;;3.88;;
9661;SDS011;24982;52.344;12.990;2023-05-10T15:14:15;9.07;;;4.80;;
9661;SDS011;24982;52.344;12.990;2023-05-10T15:17:17;4.18;;;3.88;;
9661;SDS011;24982;52.344;12.990;2023-05-10T15:20:21;4.13;;;3.72;;
9661;SDS011;24982;52.344;12.990;2023-05-10T15:23:23;8.45;;;4.20;;
9661;SDS011;24982;52.344;12.990;2023-05-10T15:26:25;4.18;;;3.88;;
9661;SDS011;24982;52.344;12.990;2023-05-10T15:29:27;4.45;;;4.13;;
9661;SDS011;24982;52.344;12.990;2023-05-10T15:32:29;5.63;;;4.18;;
9661;SDS011;24982;52.344;12.990;2023-05-10T15:35:33;4.38;;;4.00;;
9661;SDS011;24982;52.344;12.990;2023-05-10T15:38:37;11.73;;;4.93;;
9661;SDS011;24982;52.344;12.990;2023-05-10T15:41:39;5.30;;;4.07;;
9661;SDS011;24982;52.344;12.990;2023-05-10T15:44:41;4.25;;;3.95;;
9661;SDS011;24982;52.344;12.990;2023-05-10T15:47:44;18.13;;;4.57;;
9661;SDS011;24982;52.344;12.990;2023-05-10T15:50:48;6.95;;;4.10;;
9661;SDS011;24982;52.344;12.990;2023-05-10T15:53:50;4.57;;;4.18;;
9661;SDS011;24982;52.344;12.990;2023-05-10T15:56:52;4.57;;;3.97;;
9661;SDS011;24982;52.344;12.990;2023-05-10T15:59:54;4.15;;;3.85;;
9661;SDS011;24982;52.344;12.990;2023-05-10T16:02:57;4.20;;;3.80;;
9661;SDS011;24982;52.344;12.990;2023-05-10T16:06:00;6.38;;;4.03;;
9661;SDS011;24982;52.344;12.990;2023-05-10T16:09:02;7.00;;;3.85;;
9661;SDS011;24982;52.344;12.990;2023-05-10T16:12:04;14.27;;;4.30;;
9661;SDS011;24982;52.344;12.990;2023-05-10T16:15:07;3.70;;;3.40;;
9661;SDS011;24982;52.344;12.990;2023-05-10T16:18:09;3.70;;;3.47;;
9661;SDS011;24982;52.344;12.990;2023-05-10T16:21:13;7.35;;;3.88;;
9661;SDS011;24982;52.344;12.990;2023-05-10T16:24:16;4.30;;;3.90;;
9661;SDS011;24982;52.344;12.990;2023-05-10T16:27:18;4.10;;;3.70;;
9661;SDS011;24982;52.344;12.990;2023-05-10T16:30:20;3.58;;;3.38;;
9661;SDS011;24982;52.344;12.990;2023-05-10T16:33:23;3.40;;;3.20;;
9661;SDS011;24982;52.344;12.990;2023-05-10T16:36:26;3.65;;;3.40;;
9661;SDS011;24982;52.344;12.990;2023-05-10T16:39:29;3.50;;;3.30;;
9661;SDS011;24982;52.344;12.990;2023-05-10T16:42:31;3.72;;;3.40;;
9661;SDS011;24982;52.344;12.990;2023-05-10T16:45:33;3.83;;;3.55;;
9661;SDS011;24982;52.344;12.990;2023-05-10T16:48:35;3.88;;;3.58;;
9661;SDS011;24982;52.344;12.990;2023-05-10T16:51:38;5.15;;;3.30;;
9661;SDS011;24982;52.344;12.990;2023-05-10T16:54:40;3.80;;;3.50;;
9661;SDS011;24982;52.344;12.990;2023-05-10T16:57:42;4.93;;;3.55;;
9661;SDS011;24982;52.344;12.990;2023-05-10T17:00:44;4.00;;;3.17;;
9661;SDS011;24982;52.344;12.990;2023-05-10T17:03:46;3.47;;;3.17;;
9661;SDS011;24982;52.344;12.990;2023-05-10T17:06:49;3.28;;;3.08;;
9661;SDS011;24982;52.344;12.990;2023-05-10T17:09:51;4.22;;;3.28;;
9661;SDS011;24982;52.344;12.990;2023-05-10T17:12:53;5.95;;;3.47;;
9661;SDS011;24982;52.344;12.990;2023-05-10T17:15:55;3.80;;;3.60;;
9661;SDS011;24982;52.344;12.990;2023-05-10T17:18:57;4.53;;;4.22;;
9661;SDS011;24982;52.344;12.990;2023-05-10T17:22:02;3.50;;;3.17;;
9661;SDS011;24982;52.344;12.990;2023-05-10T17:25:04;3.50;;;3.30;;
9661;SDS011;24982;52.344;12.990;2023-05-10T17:28:07;3.72;;;3.22;;
9661;SDS011;24982;52.344;12.990;2023-05-10T17:31:09;3.30;;;3.13;;
9661;SDS011;24982;52.344;12.990;2023-05-10T17:34:11;3.20;;;3.00;;
9661;SDS011;24982;52.344;12.990;2023-05-10T17:37:15;3.28;;;3.08;;
9661;SDS011;24982;52.344;12.990;2023-05-10T17:40:17;3.00;;;2.90;;
9661;SDS011;24982;52.344;12.990;2023-05-10T17:43:21;3.00;;;2.90;;
9661;SDS011;24982;52.344;12.990;2023-05-10T17:46:25;3.42;;;3.13;;
9661;SDS011;24982;52.344;12.990;2023-05-10T17:49:27;3.50;;;3.30;;
9661;SDS011;24982;52.344;12.990;2023-05-10T17:52:33;3.47;;;3.10;;
9661;SDS011;24982;52.344;12.990;2023-05-10T17:55:38;3.55;;;3.08;;
9661;SDS011;24982;52.344;12.990;2023-05-10T17:58:41;4.22;;;3.30;;
9661;SDS011;24982;52.344;12.990;2023-05-10T18:01:43;3.10;;;2.90;;
9661;SDS011;24982;52.344;12.990;2023-05-10T18:04:45;3.70;;;3.40;;
9661;SDS011;24982;52.344;12.990;2023-05-10T18:07:49;5.97;;;3.80;;
9661;SDS011;24982;52.344;12.990;2023-05-10T18:10:51;3.42;;;3.13;;
9661;SDS011;24982;52.344;12.990;2023-05-10T18:13:53;3.70;;;3.40;;
9661;SDS011;24982;52.344;12.990;2023-05-10T18:16:55;5.60;;;3.40;;
9661;SDS011;24982;52.344;12.990;2023-05-10T18:19:57;3.90;;;3.60;;
9661;SDS011;24982;52.344;12.990;2023-05-10T18:23:01;5.05;;;2.97;;
9661;SDS011;24982;52.344;12.990;2023-05-10T18:26:03;3.30;;;3.10;;
9661;SDS011;24982;52.344;12.990;2023-05-10T18:29:05;3.50;;;3.30;;
9661;SDS011;24982;52.344;12.990;2023-05-10T18:32:07;2.90;;;2.80;;